首页
METAR-TAF:

METAR-TAF

机场 :

博蒙特 / Port Arthur, 得克萨斯州, 美国

纬度: 29-57-03N, 经度: 094-01-15W, 海拔: 5米

当前天气观测

该预报发布于1小时和5分钟前的13:53 UTC
风速4节,风向多变
温度 27°C
湿度 84%
气压 1014 hPa
能見度: 16.1公里
散云层高于3000英尺

METAR: KBPT 041353Z VRB04KT 10SM SCT030 27/24 A2994 RMK AO2 SLP139 T02720244

时间: 09:58 (14:58 UTC)

预报

该预报发布于3小时和35分钟前的11:23 UTC
预报有效从04日的 12点(UTC)到 05日的 12点(UTC)
风速5节,风向多变
能見度: 10公里
少量云层高于1500英尺
从 04日的 1800点(UTC)
风速7节,风向
能見度: 10公里
少量云层高于2500英尺
从 05日的 0200点(UTC)
风速5节,风向多变
能見度: 10公里
少量云层高于25000英尺
从 05日的 0800点(UTC)
风速节,风向
能見度: 10公里
少量云层高于800英尺
散云层高于20000英尺

TAF: KBPT 041123Z 0412/0512 VRB05KT P6SM FEW015 FM041800 18007KT P6SM FEW025 FM050200 VRB05KT P6SM FEW250 FM050800 00000KT P6SM FEW008 SCT200

超过4000个机场的气象观测和天气预报(METAR&TAF报告)。

可查询的气象台以黄色和红色小点在地图上表示。

将鼠标移到小点上方,可查看气象台名称。

然后点击查看天气观测和预报。

如需切换地图:点击带黑十字的绿色按钮放大地图;点击带横线的绿色按钮缩小地图;或者点击绿色箭头查看邻近地区的地图。


METAR-TAF: